createdAt,value
2019-04-05T09:00:09.266Z,17.15
2019-04-05T09:02:40.199Z,17.58
2019-04-05T09:05:11.344Z,18.18
2019-04-05T09:07:42.217Z,18.68
2019-04-05T09:10:13.150Z,17.88
2019-04-05T09:12:43.875Z,18.15
2019-04-05T09:15:14.862Z,18.41
2019-04-05T09:17:45.560Z,19.34
2019-04-05T09:20:16.232Z,19.05
2019-04-05T09:22:47.250Z,19.48
2019-04-05T09:25:19.784Z,19.92
2019-04-05T09:27:50.660Z,19.26
2019-04-05T09:30:23.319Z,19.21
2019-04-05T09:32:54.019Z,19.44
2019-04-05T09:35:24.735Z,19.43
2019-04-05T09:37:55.673Z,20.11
2019-04-05T09:40:26.724Z,20.39
2019-04-05T09:42:57.680Z,21.02
2019-04-05T09:45:28.376Z,21.22
2019-04-05T09:47:59.064Z,21.04
2019-04-05T09:50:30.740Z,20.99
2019-04-05T09:53:01.449Z,20.87
2019-04-05T09:55:32.532Z,21.09
2019-04-05T09:58:03.721Z,21.35
2019-04-05T10:00:36.129Z,20.83
2019-04-05T10:03:09.944Z,21.33
2019-04-05T10:05:40.637Z,21.10
2019-04-05T10:08:11.335Z,21.20
2019-04-05T10:10:42.571Z,21.91
2019-04-05T10:13:14.718Z,22.99
2019-04-05T10:15:46.921Z,23.32
2019-04-05T10:18:18.014Z,23.59
2019-04-05T10:20:48.825Z,22.86
2019-04-05T10:23:19.759Z,22.61
2019-04-05T10:25:50.837Z,22.75
2019-04-05T10:28:21.547Z,23.50
2019-04-05T10:30:52.277Z,23.53
2019-04-05T10:33:23.341Z,23.46
2019-04-05T10:35:55.157Z,24.39
2019-04-05T10:38:25.875Z,24.70
2019-04-05T10:40:56.563Z,24.39
2019-04-05T10:43:27.725Z,24.21
2019-04-05T10:45:58.818Z,24.75
2019-04-05T10:48:29.501Z,24.79
2019-04-05T10:51:00.459Z,24.44
2019-04-05T10:53:31.443Z,24.13
2019-04-05T10:56:02.120Z,24.21
2019-04-05T10:58:32.834Z,24.41
2019-04-05T11:01:03.506Z,24.64
2019-04-05T11:03:34.179Z,24.99
2019-04-05T11:06:05.220Z,25.02
2019-04-05T11:08:35.967Z,25.25
2019-04-05T11:11:06.679Z,25.58
2019-04-05T11:13:37.608Z,25.48
2019-04-05T11:16:08.584Z,25.68
2019-04-05T11:18:39.241Z,25.90
2019-04-05T11:21:10.217Z,25.87
2019-04-05T11:23:40.903Z,25.09
2019-04-05T11:26:12.059Z,24.70
2019-04-05T11:28:43.269Z,25.05
2019-04-05T11:31:14.035Z,25.20
2019-04-05T11:33:45.001Z,24.97
2019-04-05T11:36:15.993Z,24.26
2019-04-05T11:38:50.058Z,24.37
2019-04-05T11:41:21.478Z,24.32
2019-04-05T11:43:55.702Z,23.63
2019-04-05T11:46:27.951Z,23.25
2019-04-05T11:49:01.354Z,22.87
2019-04-05T11:51:32.673Z,23.14
2019-04-05T11:54:05.470Z,23.27
2019-04-05T11:56:36.932Z,23.18
2019-04-05T11:59:09.747Z,23.24
2019-04-05T12:01:45.312Z,23.32
2019-04-05T12:04:16.089Z,23.17
2019-04-05T12:06:52.043Z,22.98
2019-04-05T12:09:22.938Z,21.79
2019-04-05T12:11:54.013Z,21.78
2019-04-05T12:14:30.336Z,22.38
2019-04-05T12:16:57.400Z,22.34
2019-04-05T12:19:28.446Z,22.25
2019-04-05T12:21:59.108Z,22.13
2019-04-05T12:24:32.495Z,21.97
2019-04-05T12:27:04.438Z,22.15
2019-04-05T12:29:35.438Z,22.14
2019-04-05T12:32:06.404Z,22.07
2019-04-05T12:34:37.369Z,22.16
2019-04-05T12:37:08.024Z,22.00
2019-04-05T12:39:38.859Z,21.27
2019-04-05T12:42:11.983Z,21.39
2019-04-05T12:44:45.035Z,20.71
2019-04-05T12:47:15.772Z,21.04
2019-04-05T12:49:47.116Z,20.83
2019-04-05T12:52:23.065Z,20.82
2019-04-05T12:54:54.641Z,20.76
2019-04-05T12:57:23.470Z,20.54
2019-04-05T12:59:56.434Z,20.66
2019-04-05T13:02:33.935Z,20.30
2019-04-05T13:05:01.297Z,19.91
2019-04-05T13:07:34.883Z,19.54
2019-04-05T13:10:06.746Z,19.56
2019-04-05T13:12:37.402Z,19.52
2019-04-05T13:15:12.880Z,19.48
2019-04-05T13:17:41.347Z,19.13
2019-04-05T13:20:13.025Z,19.58
2019-04-05T13:22:43.879Z,20.19
2019-04-05T13:25:14.815Z,20.50
2019-04-05T13:27:45.471Z,20.66
2019-04-05T13:30:19.270Z,20.64
2019-04-05T13:32:52.753Z,20.33
2019-04-05T13:35:22.901Z,20.23
2019-04-05T13:37:54.020Z,20.08
2019-04-05T13:40:24.750Z,20.43
2019-04-05T13:42:55.856Z,20.69
2019-04-05T13:45:26.644Z,20.75
2019-04-05T13:47:57.510Z,21.01
2019-04-05T13:50:28.600Z,21.04
2019-04-05T13:52:59.363Z,21.12
2019-04-05T13:55:30.380Z,21.22
2019-04-05T13:58:01.570Z,21.21
2019-04-05T14:00:32.596Z,21.37
2019-04-05T14:03:03.556Z,21.64
2019-04-05T14:05:34.267Z,21.54
2019-04-05T14:08:10.208Z,21.80
2019-04-05T14:10:39.702Z,21.77
2019-04-05T14:13:11.620Z,21.48
2019-04-05T14:15:43.068Z,21.33
2019-04-05T14:18:15.220Z,20.83
2019-04-05T14:20:49.616Z,21.06
2019-04-05T14:23:23.276Z,21.21
2019-04-05T14:25:52.711Z,21.49
2019-04-05T14:28:23.682Z,21.76
2019-04-05T14:30:54.776Z,21.62
2019-04-05T14:33:25.804Z,21.10
2019-04-05T14:35:56.732Z,20.79
2019-04-05T14:38:27.463Z,20.46
2019-04-05T14:40:58.158Z,20.35
2019-04-05T14:43:29.146Z,20.40
2019-04-05T14:46:02.670Z,20.31
2019-04-05T14:48:32.237Z,20.26
2019-04-05T14:51:03.014Z,20.22
2019-04-05T14:53:33.745Z,19.98
2019-04-05T14:56:04.527Z,20.08
2019-04-05T14:58:35.191Z,20.16
2019-04-05T15:01:06.334Z,20.04
2019-04-05T15:03:36.986Z,19.94
2019-04-05T15:06:08.647Z,20.11
2019-04-05T15:08:39.318Z,20.34
2019-04-05T15:11:11.224Z,20.54
2019-04-05T15:13:43.144Z,20.61
2019-04-05T15:16:14.535Z,20.68
2019-04-05T15:18:45.752Z,20.76
2019-04-05T15:21:16.782Z,20.79
2019-04-05T15:23:47.758Z,20.90
2019-04-05T15:26:21.269Z,20.73
2019-04-05T15:28:54.613Z,20.77
2019-04-05T15:31:26.460Z,20.92
2019-04-05T15:33:57.722Z,21.19
2019-04-05T15:36:31.553Z,21.40
2019-04-05T15:39:03.110Z,21.55
2019-04-05T15:41:34.877Z,21.67
2019-04-05T15:44:05.912Z,21.52
2019-04-05T15:46:36.948Z,21.45
2019-04-05T15:49:07.983Z,21.50
2019-04-05T15:51:38.661Z,21.22
2019-04-05T15:54:10.576Z,21.22
2019-04-05T15:56:41.612Z,21.19
2019-04-05T15:59:12.668Z,21.06
2019-04-05T16:01:43.703Z,20.69
2019-04-05T16:04:14.648Z,20.59
2019-04-05T16:06:45.457Z,20.42
2019-04-05T16:09:18.260Z,20.41
2019-04-05T16:11:48.955Z,20.37
2019-04-05T16:14:19.620Z,20.26
2019-04-05T16:16:50.588Z,20.19
2019-04-05T16:19:21.268Z,20.20
2019-04-05T16:21:51.932Z,20.06
2019-04-05T16:24:22.940Z,20.09
2019-04-05T16:26:53.608Z,20.01
2019-04-05T16:29:24.406Z,20.07
2019-04-05T16:31:55.357Z,19.91
2019-04-05T16:34:26.036Z,19.88
2019-04-05T16:36:57.044Z,19.80
2019-04-05T16:39:27.985Z,19.62
2019-04-05T16:41:58.904Z,19.66
2019-04-05T16:44:29.831Z,19.59
2019-04-05T16:47:00.744Z,19.53
2019-04-05T16:49:31.695Z,19.52
2019-04-05T16:52:02.370Z,19.44
2019-04-05T16:54:34.278Z,19.38
2019-04-05T16:57:05.715Z,19.29
2019-04-05T16:59:37.870Z,19.26
2019-04-05T17:02:09.190Z,19.22
2019-04-05T17:04:40.128Z,19.22
2019-04-05T17:07:11.082Z,19.19
2019-04-05T17:09:42.032Z,19.20
2019-04-05T17:12:13.007Z,19.26
2019-04-05T17:14:44.659Z,19.20
2019-04-05T17:17:15.352Z,19.18
2019-04-05T17:19:46.280Z,19.17
2019-04-05T17:22:16.988Z,19.16
2019-04-05T17:24:48.003Z,19.15
2019-04-05T17:27:18.678Z,19.11
2019-04-05T17:29:49.748Z,19.09
2019-04-05T17:32:20.425Z,19.09
2019-04-05T17:34:51.507Z,19.06
2019-04-05T17:37:22.607Z,19.07
2019-04-05T17:39:53.322Z,18.96
2019-04-05T17:42:24.400Z,18.93
2019-04-05T17:44:55.648Z,18.96
2019-04-05T17:47:26.692Z,18.79
2019-04-05T17:49:57.820Z,18.81
2019-04-05T17:52:28.537Z,18.73
2019-04-05T17:54:59.463Z,18.70
2019-04-05T17:57:30.947Z,18.65
2019-04-05T18:00:02.387Z,18.62
2019-04-05T18:02:33.467Z,18.25
2019-04-05T18:05:05.295Z,17.94
2019-04-05T18:07:37.967Z,17.97
2019-04-05T18:10:09.191Z,18.01
2019-04-05T18:12:39.898Z,17.96
2019-04-05T18:15:10.945Z,17.94
2019-04-05T18:17:41.635Z,17.77
2019-04-05T18:20:12.732Z,17.56
2019-04-05T18:22:43.671Z,17.68
2019-04-05T18:25:14.569Z,17.63
2019-04-05T18:27:45.211Z,17.60
2019-04-05T18:30:16.255Z,17.55
2019-04-05T18:32:47.285Z,17.52
2019-04-05T18:35:17.994Z,17.37
2019-04-05T18:37:49.010Z,17.20
2019-04-05T18:40:19.982Z,17.20
2019-04-05T18:42:50.656Z,17.13
2019-04-05T18:45:21.725Z,17.21
2019-04-05T18:47:52.965Z,17.22
2019-04-05T18:50:23.665Z,17.12
2019-04-05T18:52:54.666Z,17.02
2019-04-05T18:55:25.336Z,16.95
2019-04-05T18:57:56.423Z,16.92
2019-04-05T19:00:27.458Z,16.90
2019-04-05T19:02:58.145Z,16.84
2019-04-05T19:05:28.868Z,16.80
2019-04-05T19:07:59.551Z,16.74
2019-04-05T19:10:36.782Z,16.71
2019-04-05T19:13:02.855Z,16.71
2019-04-05T19:15:33.907Z,16.63
2019-04-05T19:18:04.587Z,16.57
2019-04-05T19:20:36.938Z,16.53
2019-04-05T19:23:08.708Z,16.49
2019-04-05T19:25:39.685Z,16.44
2019-04-05T19:28:10.743Z,16.41
2019-04-05T19:51:00.735Z,15.92
2019-04-05T19:53:31.680Z,15.86
2019-04-05T19:56:02.936Z,15.77
2019-04-05T19:58:33.889Z,15.73
2019-04-05T20:01:04.920Z,15.70
2019-04-05T20:03:36.961Z,15.61
2019-04-05T20:06:08.039Z,15.52
2019-04-05T20:08:38.712Z,15.47
2019-04-05T20:11:09.872Z,15.44
2019-04-05T20:13:40.906Z,15.37
2019-04-05T20:16:11.865Z,15.30
2019-04-05T20:18:42.653Z,15.27
2019-04-05T20:21:13.446Z,15.18
2019-04-05T20:23:47.775Z,15.13
2019-04-05T20:26:17.070Z,15.06
2019-04-05T20:28:47.772Z,14.91
2019-04-05T20:31:18.731Z,14.90
2019-04-05T20:33:49.883Z,14.85
2019-04-05T20:36:20.854Z,14.79
2019-04-05T20:38:51.647Z,14.76
2019-04-05T20:41:22.348Z,14.77
2019-04-05T20:43:53.039Z,14.67
2019-04-05T20:46:24.997Z,14.57
2019-04-05T20:48:55.734Z,14.54
2019-04-05T20:51:26.676Z,14.47
2019-04-05T20:53:57.386Z,14.38
2019-04-05T20:56:28.497Z,14.31
2019-04-05T20:58:59.552Z,14.29
2019-04-05T21:01:30.227Z,14.31
2019-04-05T21:04:00.922Z,14.27
2019-04-05T21:06:31.613Z,14.18
2019-04-05T21:09:02.574Z,14.28
2019-04-05T21:11:35.022Z,14.22
2019-04-05T21:14:05.983Z,14.12
2019-04-05T21:16:37.043Z,14.04
2019-04-05T21:19:07.725Z,14.04
2019-04-05T21:21:38.819Z,13.96
2019-04-05T21:24:09.482Z,13.99
2019-04-05T21:26:40.586Z,13.99
2019-04-05T21:29:11.274Z,13.82
2019-04-05T21:31:42.249Z,13.78
2019-04-05T21:34:13.291Z,13.69
2019-04-05T21:36:46.157Z,13.61
2019-04-05T21:39:16.881Z,13.57
2019-04-05T21:41:47.877Z,13.50
2019-04-05T21:44:19.003Z,13.52
2019-04-05T21:46:49.671Z,13.47
2019-04-05T21:49:20.647Z,13.38
2019-04-05T21:51:51.324Z,13.33
2019-04-05T21:54:22.718Z,13.33
2019-04-05T21:56:53.392Z,13.23
2019-04-05T21:59:24.406Z,13.20
2019-04-05T22:01:55.463Z,13.18
2019-04-05T22:04:26.407Z,13.11
2019-04-05T22:06:57.089Z,13.02
2019-04-05T22:09:28.323Z,13.07
2019-04-05T22:11:59.058Z,13.02
2019-04-05T22:14:29.697Z,13.02
2019-04-05T22:17:00.663Z,12.97
2019-04-05T22:19:31.357Z,12.88
2019-04-05T22:22:02.035Z,12.89
2019-04-05T22:24:32.860Z,12.97
2019-04-05T22:27:04.364Z,12.98
2019-04-05T22:29:35.125Z,12.96
2019-04-05T22:32:06.331Z,12.93
2019-04-05T22:34:36.993Z,12.87
2019-04-05T22:37:07.698Z,12.89
2019-04-05T22:39:38.356Z,12.85
2019-04-05T22:42:09.415Z,12.83
2019-04-05T22:44:41.512Z,12.81
2019-04-05T22:47:12.467Z,12.76
2019-04-05T22:49:43.420Z,12.71
2019-04-05T22:52:14.346Z,12.65
2019-04-05T22:54:45.095Z,12.65
2019-04-05T22:57:16.114Z,12.59
2019-04-05T22:59:46.985Z,12.52
2019-04-05T23:02:17.960Z,12.54
2019-04-05T23:04:48.660Z,12.59
2019-04-05T23:07:19.405Z,12.47
2019-04-05T23:09:50.330Z,12.38
2019-04-05T23:12:21.010Z,12.40
2019-04-05T23:14:51.699Z,12.37
2019-04-05T23:17:22.382Z,12.37
2019-04-05T23:19:53.039Z,12.33
2019-04-05T23:22:23.719Z,12.29
2019-04-05T23:24:54.643Z,12.16
2019-04-05T23:27:25.593Z,12.21
2019-04-05T23:29:56.250Z,12.24
2019-04-05T23:32:26.951Z,12.15
2019-04-05T23:34:57.616Z,12.13
2019-04-05T23:37:28.595Z,12.28
2019-04-05T23:39:59.251Z,12.47
2019-04-05T23:42:29.954Z,12.51
2019-04-05T23:45:00.964Z,12.54
2019-04-05T23:47:31.728Z,12.46
2019-04-05T23:50:03.539Z,12.39
2019-04-05T23:52:35.307Z,12.38
2019-04-05T23:55:08.095Z,12.26
2019-04-05T23:57:38.777Z,12.22
